MMIO

Plan De Guadalupe International Airport

Airport
ICAO code
MMIO
IATA Code
SLW
Summary
ICAO Region
CARSAM
ICAO Territory
Location

Ramos Arizpe, Coahuila de Zaragoza

Serving
Saltillo
Elevation
4778 ft
Coordinates
25° 32' 58" N , 100° 55' 43" W
KCC
Metar
MMIO 250047Z 02008KT 10SM SKC 36/14 A3002

Plan de Guadalupe International Airport is an airport located at Ramos Arizpe in the state of Coahuila in Mexico.

Climatology

Hot Desert Climate (Köppen climate classification BWh)

Runways

Designator Length Width Surface Rops
3/21 1058 45 ASP No/No
17/35 2897 45 ASP Yes/Yes

Airport map

Aerial View

SKYbrary Partners:

Safety knowledge contributed by: